Time;durP1;ratioP1;P1;durP2;ratioP2;P2;SDS_P1;SDS_P2;PMS_P1;PMS_P2;Temp;Humidity;BMP_temperature;BMP_pressure;BME280_temperature;BME280_humidity;BME280_pressure;Samples;Min_cycle;Max_cycle;Signal;HPM_P1;HPM_P2
2020/12/16 00:03:23;;;;;;;100.40;45.80;;;;;;;1.99;71.08;99429.20;251591;1134;115059;-77
2020/12/16 00:08:26;;;;;;;117.75;52.62;;;;;;;1.96;70.55;99423.16;251706;1134;115024;-77
2020/12/16 00:13:29;;;;;;;108.87;51.70;;;;;;;1.96;70.79;99423.16;250404;1134;115006;-77
2020/12/16 00:18:31;;;;;;;108.72;52.03;;;;;;;1.98;70.78;99427.48;251475;1134;114807;-77
2020/12/16 00:23:34;;;;;;;108.85;51.18;;;;;;;1.99;70.63;99431.83;251658;1134;114904;-76
2020/12/16 00:28:36;;;;;;;99.42;50.23;;;;;;;1.98;70.79;99429.25;251683;1134;114883;-77
2020/12/16 00:33:38;;;;;;;106.07;51.67;;;;;;;1.94;70.75;99424.94;250751;1134;115023;-79
2020/12/16 00:38:41;;;;;;;111.40;54.10;;;;;;;1.90;70.34;99442.51;251723;1135;114931;-79
2020/12/16 00:43:43;;;;;;;101.87;53.03;;;;;;;1.87;71.02;99437.35;249904;1133;114687;-78
2020/12/16 00:48:47;;;;;;;118.00;55.40;;;;;;;1.89;70.78;99444.27;251629;1134;114777;-77
2020/12/16 00:53:50;;;;;;;120.77;56.67;;;;;;;1.95;70.78;99434.56;251460;1134;114887;-78
2020/12/16 00:58:53;;;;;;;124.87;58.57;;;;;;;1.96;70.71;99426.64;251525;1134;114941;-76
2020/12/16 01:03:57;;;;;;;113.42;55.75;;;;;;;1.99;70.83;99433.59;251279;1133;114916;-76
2020/12/16 01:09:00;;;;;;;118.57;57.10;;;;;;;1.99;70.19;99436.22;250394;1134;114872;-78
2020/12/16 01:14:05;;;;;;;115.95;58.58;;;;;;;1.96;70.43;99434.52;251653;1133;115292;-78
2020/12/16 01:19:09;;;;;;;119.97;59.67;;;;;;;1.95;70.48;99439.81;251558;1134;114900;-78
2020/12/16 01:24:14;;;;;;;120.77;59.45;;;;;;;1.95;70.63;99437.19;251634;1134;114765;-78
2020/12/16 01:29:17;;;;;;;133.18;62.50;;;;;;;1.91;70.56;99422.41;251756;1133;114960;-79
2020/12/16 01:34:20;;;;;;;131.75;64.80;;;;;;;1.87;70.74;99434.73;251797;1134;114565;-79
2020/12/16 01:39:28;;;;;;;130.50;63.58;;;;;;;1.95;70.88;99432.80;251596;1134;115215;-78
2020/12/16 01:44:32;;;;;;;142.23;67.87;;;;;;;2.04;70.86;99450.13;251486;1135;114842;-78
2020/12/16 01:49:38;;;;;;;132.27;64.10;;;;;;;2.10;70.54;99455.22;251712;1134;114833;-78
2020/12/16 01:54:41;;;;;;;132.87;65.30;;;;;;;2.14;70.80;99462.16;251522;1135;114741;-78
2020/12/16 01:59:50;;;;;;;122.70;62.60;;;;;;;2.13;70.73;99458.64;251589;1134;115049;-78
2020/12/16 02:05:02;;;;;;;126.97;62.47;;;;;;;2.13;70.64;99463.90;251811;1135;114973;-78
2020/12/16 02:10:04;;;;;;;123.00;60.63;;;;;;;2.13;70.55;99457.78;251750;1135;114924;-78
2020/12/16 02:15:08;;;;;;;127.82;60.55;;;;;;;2.13;70.52;99465.66;251643;1134;114939;-78
2020/12/16 02:20:12;;;;;;;125.12;61.35;;;;;;;2.15;70.57;99465.65;251422;1134;116208;-78
2020/12/16 02:25:19;;;;;;;131.40;62.43;;;;;;;2.18;70.34;99473.47;251295;1135;114558;-78
2020/12/16 02:30:29;;;;;;;120.35;60.15;;;;;;;2.26;70.77;99469.77;251757;1136;114873;-78
2020/12/16 02:35:49;;;;;;;129.00;62.03;;;;;;;2.35;70.85;99471.34;251573;1135;114781;-78
2020/12/16 02:40:54;;;;;;;124.15;62.43;;;;;;;2.39;70.47;99466.88;251670;1135;114939;-78
2020/12/16 02:45:57;;;;;;;126.18;62.35;;;;;;;2.40;70.70;99463.34;251532;1135;114592;-78
2020/12/16 02:50:59;;;;;;;127.43;63.43;;;;;;;2.38;70.47;99468.65;251760;1133;116638;-78
2020/12/16 02:56:02;;;;;;;120.33;62.03;;;;;;;2.35;70.42;99456.44;251555;1135;115109;-78
2020/12/16 03:01:16;;;;;;;120.47;59.00;;;;;;;2.39;70.64;99466.88;251470;1135;114782;-78
2020/12/16 03:06:54;;;;;;;123.42;62.15;;;;;;;2.37;70.79;99474.77;251205;1134;114827;-78
2020/12/16 03:12:00;;;;;;;111.57;55.08;;;;;;;2.35;70.36;99476.59;251667;1133;114577;-78
2020/12/16 03:17:12;;;;;;;113.07;57.17;;;;;;;2.31;70.29;99488.92;251391;1134;115026;-78
2020/12/16 03:22:20;;;;;;;126.02;59.90;;;;;;;2.33;70.39;99473.98;251750;1133;114860;-78
2020/12/16 03:27:40;;;;;;;119.97;58.40;;;;;;;2.33;70.15;99481.00;251616;1135;114770;-78
2020/12/16 03:33:01;;;;;;;116.12;60.28;;;;;;;2.30;70.36;99483.69;251729;1135;114698;-78
2020/12/16 03:38:18;;;;;;;123.10;59.45;;;;;;;2.32;70.26;99487.16;251749;1135;114993;-78
2020/12/16 03:43:24;;;;;;;125.97;62.97;;;;;;;2.33;70.30;99491.50;251903;1134;115343;-78
2020/12/16 03:48:27;;;;;;;127.42;60.60;;;;;;;2.30;70.25;99495.05;251691;1133;114798;-78
2020/12/16 03:53:30;;;;;;;121.00;59.03;;;;;;;2.26;70.44;99492.53;251558;1136;115008;-78
2020/12/16 03:58:52;;;;;;;123.33;60.47;;;;;;;2.28;70.51;99488.98;251662;1133;115023;-78
2020/12/16 04:04:11;;;;;;;126.53;61.80;;;;;;;2.34;70.51;99495.84;251675;1134;114857;-78
2020/12/16 04:09:16;;;;;;;132.50;67.13;;;;;;;2.35;70.47;99494.97;251750;1135;114960;-78
2020/12/16 04:14:29;;;;;;;128.87;64.53;;;;;;;2.39;70.44;99491.37;250137;1135;114806;-79
2020/12/16 04:19:31;;;;;;;112.97;58.83;;;;;;;2.38;70.37;99494.91;251815;1133;114862;-79
2020/12/16 04:24:34;;;;;;;125.95;64.53;;;;;;;2.33;70.22;99500.23;251826;1134;114819;-79
2020/12/16 04:29:47;;;;;;;125.38;65.40;;;;;;;2.37;70.61;99498.41;251535;1135;114691;-79
2020/12/16 04:34:50;;;;;;;139.00;69.07;;;;;;;2.41;70.56;99507.09;251744;1133;115215;-79
2020/12/16 04:39:52;;;;;;;125.20;62.60;;;;;;;2.45;70.65;99504.38;251828;1135;116188;-79
2020/12/16 04:44:56;;;;;;;129.37;65.57;;;;;;;2.46;70.73;99505.24;251549;1134;114970;-79
2020/12/16 04:50:05;;;;;;;142.93;70.92;;;;;;;2.47;70.61;99509.59;251566;1135;115427;-79
2020/12/16 04:55:17;;;;;;;148.38;72.40;;;;;;;2.53;70.65;99512.95;251731;1135;114744;-79
2020/12/16 05:00:46;;;;;;;148.30;70.80;;;;;;;2.62;70.70;99511.04;251631;1134;114984;-79
2020/12/16 05:06:04;;;;;;;134.60;65.33;;;;;;;2.66;70.37;99520.58;251765;1133;115124;-79
2020/12/16 05:11:07;;;;;;;130.53;64.77;;;;;;;2.67;70.80;99525.78;251694;1134;115108;-79
2020/12/16 05:16:10;;;;;;;129.47;64.13;;;;;;;2.70;70.72;99516.97;251783;1133;115042;-77
2020/12/16 05:21:16;;;;;;;131.90;65.05;;;;;;;2.60;70.41;99527.67;251891;1135;115367;-80
2020/12/16 05:26:18;;;;;;;134.83;66.77;;;;;;;2.62;70.69;99522.41;251853;1133;115055;-77
2020/12/16 05:31:21;;;;;;;134.03;67.17;;;;;;;2.69;70.89;99531.88;251577;1134;115241;-78
2020/12/16 05:36:28;;;;;;;131.27;65.83;;;;;;;2.76;70.81;99537.87;251716;1135;115057;-78
2020/12/16 05:41:33;;;;;;;124.50;63.15;;;;;;;2.77;70.48;99542.21;251803;1134;114812;-77
2020/12/16 05:46:37;;;;;;;112.53;59.00;;;;;;;2.79;70.54;99559.69;251058;1134;115990;-77
2020/12/16 05:51:41;;;;;;;120.20;61.50;;;;;;;2.80;70.66;99560.55;251762;1134;114948;-77
2020/12/16 05:56:43;;;;;;;119.57;60.43;;;;;;;2.79;70.53;99556.20;251724;1134;115000;-77
2020/12/16 06:01:48;;;;;;;121.67;59.97;;;;;;;2.79;70.44;99561.45;251780;1134;114868;-76
2020/12/16 06:06:51;;;;;;;127.15;60.80;;;;;;;2.78;70.63;99557.94;251710;1135;115039;-78
2020/12/16 06:11:55;;;;;;;118.85;58.85;;;;;;;2.83;70.83;99563.11;251769;1134;114875;-77
2020/12/16 06:17:08;;;;;;;120.60;60.90;;;;;;;2.83;70.59;99563.97;251750;1135;115061;-78
2020/12/16 06:22:11;;;;;;;114.17;57.48;;;;;;;2.80;70.25;99571.06;251616;1134;114973;-77
2020/12/16 06:27:23;;;;;;;118.40;58.93;;;;;;;2.70;70.27;99580.04;251879;1134;116276;-77
2020/12/16 06:32:37;;;;;;;119.17;59.30;;;;;;;2.61;70.37;99591.59;251473;1134;115977;-77
2020/12/16 06:37:40;;;;;;;132.20;65.47;;;;;;;2.57;70.64;99592.56;250709;1135;115007;-78
2020/12/16 06:42:42;;;;;;;120.43;59.30;;;;;;;2.59;70.40;99590.78;251731;1134;115314;-77
2020/12/16 06:47:44;;;;;;;132.13;63.37;;;;;;;2.60;70.52;99584.63;251817;1134;115265;-77
2020/12/16 06:52:47;;;;;;;111.83;58.20;;;;;;;2.63;70.90;99592.44;251677;1134;114914;-77
2020/12/16 06:57:50;;;;;;;114.63;58.17;;;;;;;2.68;70.78;99587.08;251785;1133;115012;-79
2020/12/16 07:02:52;;;;;;;111.52;58.55;;;;;;;2.72;70.60;99583.52;251407;1137;115208;-77
2020/12/16 07:07:55;;;;;;;118.17;59.20;;;;;;;2.72;70.39;99591.40;251569;1134;114998;-77
2020/12/16 07:13:30;;;;;;;120.77;59.87;;;;;;;2.71;70.28;99587.88;251715;1135;116225;-77
2020/12/16 07:18:38;;;;;;;119.00;61.23;;;;;;;2.73;70.21;99583.46;251791;1134;115324;-77
2020/12/16 07:23:51;;;;;;;110.77;57.63;;;;;;;2.70;70.28;99587.92;251681;1134;115707;-77
2020/12/16 07:28:54;;;;;;;117.77;59.23;;;;;;;2.70;70.60;99593.18;251796;1135;114972;-77
2020/12/16 07:34:01;;;;;;;114.50;58.00;;;;;;;2.75;70.29;99594.82;251521;1135;114744;-78
2020/12/16 07:39:04;;;;;;;114.53;60.40;;;;;;;2.86;70.48;99598.98;251834;1135;115127;-77
2020/12/16 07:44:09;;;;;;;120.03;60.73;;;;;;;2.95;71.00;99598.76;251519;1135;115383;-77
2020/12/16 07:49:13;;;;;;;115.77;56.83;;;;;;;2.99;70.83;99605.67;251799;1134;114931;-77
2020/12/16 07:54:22;;;;;;;116.85;60.03;;;;;;;3.01;70.38;99603.89;251758;1133;114976;-78
2020/12/16 07:59:36;;;;;;;113.43;57.73;;;;;;;2.99;70.57;99606.56;251371;1134;114892;-77
2020/12/16 08:04:41;;;;;;;134.13;65.47;;;;;;;3.00;70.27;99612.69;251811;1134;114995;-77
2020/12/16 08:10:10;;;;;;;117.77;62.33;;;;;;;3.02;70.51;99614.39;251865;1134;115359;-78
2020/12/16 08:15:14;;;;;;;126.07;61.67;;;;;;;3.09;70.77;99622.97;251693;1135;115320;-77
2020/12/16 08:20:29;;;;;;;123.62;60.12;;;;;;;3.20;70.48;99626.25;251965;1135;115149;-78
2020/12/16 08:25:32;;;;;;;;;;;;;;;3.27;70.51;99638.36;251682;1134;114796;-77
2020/12/16 08:30:35;;;;;;;115.90;58.50;;;;;;;3.33;70.35;99639.99;252007;1134;103026;-77
2020/12/16 08:35:58;;;;;;;113.10;58.20;;;;;;;3.42;69.96;99633.64;251805;1134;115428;-78
2020/12/16 08:41:03;;;;;;;112.47;55.57;;;;;;;3.44;70.50;99647.63;252022;1135;115271;-77
2020/12/16 08:46:10;;;;;;;109.17;54.65;;;;;;;3.46;70.77;99644.04;251590;1134;114833;-77
2020/12/16 08:51:17;;;;;;;100.13;52.80;;;;;;;3.53;70.61;99664.08;251686;1135;114935;-77
2020/12/16 08:56:23;;;;;;;103.23;52.80;;;;;;;3.59;69.87;99665.67;251609;1134;115016;-78
2020/12/16 09:01:26;;;;;;;108.87;54.93;;;;;;;3.70;70.29;99675.94;251613;1134;114701;-80
2020/12/16 09:06:28;;;;;;;90.40;47.70;;;;;;;3.84;70.79;99670.34;251621;1134;114720;-80
2020/12/16 09:11:30;;;;;;;100.92;50.45;;;;;;;3.93;69.93;99670.12;251803;1134;115177;-79
2020/12/16 09:16:37;;;;;;;94.95;48.05;;;;;;;4.05;70.69;99668.97;251797;1133;115144;-79
2020/12/16 09:21:40;;;;;;;77.50;42.43;;;;;;;4.16;70.33;99666.92;251779;1135;114776;-79
2020/12/16 09:26:45;;;;;;;76.27;42.63;;;;;;;4.26;70.45;99671.05;251583;1134;114919;-80
2020/12/16 09:31:49;;;;;;;81.40;43.42;;;;;;;4.37;70.42;99673.39;251364;1134;116200;-79
2020/12/16 09:36:51;;;;;;;67.70;36.60;;;;;;;4.46;69.70;99674.02;251663;1134;114940;-79
2020/12/16 09:41:54;;;;;;;66.43;36.87;;;;;;;4.58;69.94;99678.07;251534;1134;115031;-79
2020/12/16 09:47:13;;;;;;;69.17;38.20;;;;;;;4.76;69.92;99671.45;251822;1134;114987;-79
2020/12/16 09:52:32;;;;;;;65.93;34.93;;;;;;;4.89;69.70;99679.85;251543;1134;115619;-79
2020/12/16 09:57:34;;;;;;;64.57;36.37;;;;;;;4.93;69.47;99689.43;251765;1135;115021;-79
2020/12/16 10:02:39;;;;;;;;;;;;;;;5.06;69.46;99676.73;251707;1134;115635;-79
2020/12/16 10:07:42;;;;;;;52.00;29.50;;;;;;;5.10;69.96;99665.20;251662;1133;102631;-79
2020/12/16 10:12:44;;;;;;;58.03;31.90;;;;;;;5.06;69.65;99672.34;251889;1135;116152;-79
2020/12/16 10:17:47;;;;;;;52.77;30.33;;;;;;;5.13;69.47;99680.91;251868;1134;114935;-79
2020/12/16 10:22:50;;;;;;;52.87;30.40;;;;;;;5.23;69.19;99671.84;251704;1134;114898;-79
2020/12/16 10:27:53;;;;;;;45.78;26.93;;;;;;;5.27;69.18;99669.98;251778;1135;114932;-78
2020/12/16 10:32:57;;;;;;;66.67;33.27;;;;;;;5.46;68.80;99677.25;251743;1134;114492;-80
2020/12/16 10:37:59;;;;;;;59.73;33.07;;;;;;;5.63;69.70;99678.52;251642;1134;115135;-80
2020/12/16 10:43:03;;;;;;;42.83;23.77;;;;;;;5.71;68.50;99673.87;251567;1135;115025;-79
2020/12/16 10:48:06;;;;;;;39.33;22.95;;;;;;;5.66;67.79;99670.50;251691;1135;114772;-79
2020/12/16 10:53:08;;;;;;;53.68;30.82;;;;;;;5.60;68.40;99675.96;251797;1135;114953;-77
2020/12/16 10:58:11;;;;;;;46.03;28.10;;;;;;;5.49;68.32;99671.02;251728;1133;115142;-78
2020/12/16 11:03:16;;;;;;;59.80;32.80;;;;;;;5.46;68.41;99665.84;251507;1135;115211;-78
2020/12/16 11:08:18;;;;;;;59.40;31.93;;;;;;;5.54;69.19;99660.34;251773;1135;115180;-81
2020/12/16 11:13:21;;;;;;;54.17;31.03;;;;;;;5.58;67.89;99659.33;249855;1134;114773;-81
2020/12/16 11:18:24;;;;;;;60.28;34.05;;;;;;;5.58;67.78;99659.33;251664;1134;114751;-80
2020/12/16 11:23:26;;;;;;;57.83;32.43;;;;;;;5.64;68.82;99648.58;251909;1135;115459;-80
2020/12/16 11:28:28;;;;;;;57.80;32.40;;;;;;;5.77;68.10;99649.87;251697;1135;114861;-80
2020/12/16 11:33:31;;;;;;;59.05;32.40;;;;;;;5.91;68.48;99641.53;251779;1134;115393;-79
2020/12/16 11:38:34;;;;;;;55.60;31.60;;;;;;;6.04;67.59;99645.49;251607;1134;115118;-79
2020/12/16 11:43:36;;;;;;;55.92;29.98;;;;;;;6.10;67.93;99642.64;251586;1134;115009;-80
2020/12/16 11:48:38;;;;;;;46.73;26.10;;;;;;;6.14;67.34;99640.77;251584;1135;115085;-79
2020/12/16 11:53:41;;;;;;;43.92;25.45;;;;;;;6.15;68.06;99645.16;252007;1134;115292;-80
2020/12/16 11:58:43;;;;;;;48.57;26.47;;;;;;;6.18;67.19;99629.16;251803;1135;115042;-80
2020/12/16 12:03:46;;;;;;;37.73;19.73;;;;;;;6.15;67.51;99634.58;251806;1134;115073;-80
2020/12/16 12:08:48;;;;;;;39.08;20.82;;;;;;;6.10;67.77;99629.44;251825;1135;114946;-80
2020/12/16 12:13:52;;;;;;;38.33;20.50;;;;;;;6.03;66.65;99635.84;251785;1134;114753;-80
2020/12/16 12:18:54;;;;;;;40.70;22.27;;;;;;;6.08;67.66;99638.32;251437;1134;115038;-80
2020/12/16 12:23:56;;;;;;;40.20;22.20;;;;;;;6.10;67.76;99649.72;251636;1134;114798;-80
2020/12/16 12:28:59;;;;;;;44.13;22.57;;;;;;;6.09;66.67;99653.28;251680;1135;115333;-80
2020/12/16 12:34:02;;;;;;;47.53;25.48;;;;;;;6.11;66.40;99646.15;251482;1134;115274;-81
2020/12/16 12:39:05;;;;;;;42.60;23.50;;;;;;;6.18;66.86;99636.23;251786;1134;115951;-81
2020/12/16 12:44:08;;;;;;;45.90;23.52;;;;;;;6.26;67.30;99644.78;251432;1135;115488;-81
2020/12/16 12:49:10;;;;;;;42.23;23.57;;;;;;;6.28;67.23;99640.28;251596;1135;115186;-81
2020/12/16 12:54:12;;;;;;;46.80;25.80;;;;;;;6.23;66.93;99629.02;251689;1134;114894;-81
2020/12/16 12:59:15;;;;;;;48.05;26.73;;;;;;;6.24;67.20;99633.39;251709;1134;115145;-82
2020/12/16 13:04:18;;;;;;;47.83;26.97;;;;;;;6.20;65.98;99634.41;251815;1134;114986;-81
2020/12/16 13:09:20;;;;;;;46.48;25.97;;;;;;;6.16;66.46;99644.23;251801;1134;115035;-82
2020/12/16 13:14:23;;;;;;;47.07;25.47;;;;;;;6.09;66.19;99640.93;251830;1134;114905;-81
2020/12/16 13:19:25;;;;;;;54.47;27.37;;;;;;;6.06;66.36;99632.25;251640;1134;115083;-82
2020/12/16 13:24:27;;;;;;;48.17;27.87;;;;;;;6.04;66.51;99634.06;251749;1134;115019;-82
2020/12/16 13:29:30;;;;;;;49.00;26.00;;;;;;;6.06;66.78;99643.67;251459;1134;114925;-80
2020/12/16 13:34:33;;;;;;;46.60;27.53;;;;;;;6.06;66.73;99646.31;251086;1134;114853;-80
2020/12/16 13:39:35;;;;;;;52.90;28.40;;;;;;;6.07;66.46;99644.53;251644;1133;115151;-81
2020/12/16 13:44:39;;;;;;;52.47;28.23;;;;;;;6.07;66.37;99639.25;251376;1133;115476;-80
2020/12/16 13:49:43;;;;;;;54.27;31.83;;;;;;;6.07;66.56;99640.11;251670;1134;115098;-82
2020/12/16 13:54:46;;;;;;;54.80;29.97;;;;;;;6.06;66.77;99638.39;251103;1134;115286;-78
2020/12/16 13:59:48;;;;;;;49.20;29.47;;;;;;;6.07;66.98;99644.53;251692;1133;114966;-77
2020/12/16 14:04:52;;;;;;;55.53;30.80;;;;;;;6.07;66.35;99655.09;251646;1134;115075;-80
2020/12/16 14:09:54;;;;;;;56.00;30.82;;;;;;;6.05;66.60;99654.31;251380;1135;114916;-81
2020/12/16 14:14:57;;;;;;;55.45;31.07;;;;;;;6.03;65.88;99656.98;251563;1134;115009;-80
2020/12/16 14:20:00;;;;;;;60.03;31.87;;;;;;;6.01;66.30;99665.87;251619;1135;114864;-81
2020/12/16 14:25:03;;;;;;;58.03;30.67;;;;;;;6.00;66.72;99669.44;251757;1134;115104;-81
2020/12/16 14:30:07;;;;;;;53.30;30.73;;;;;;;5.99;67.14;99673.00;251601;1133;114916;-81
2020/12/16 14:35:09;;;;;;;51.37;29.93;;;;;;;5.96;66.85;99659.89;251529;1134;115167;-81
2020/12/16 14:40:11;;;;;;;56.80;32.03;;;;;;;5.96;65.97;99663.39;251542;1135;115137;-80
2020/12/16 14:45:13;;;;;;;58.87;31.63;;;;;;;5.99;66.06;99660.66;251510;1135;115378;-80
2020/12/16 14:50:16;;;;;;;56.23;32.30;;;;;;;6.01;66.09;99657.94;251565;1134;115412;-80
2020/12/16 14:55:19;;;;;;;56.00;33.20;;;;;;;6.02;66.94;99655.27;251472;1134;116135;-79
2020/12/16 15:00:21;;;;;;;54.53;30.50;;;;;;;6.03;66.10;99661.41;251542;1134;114852;-79
2020/12/16 15:05:24;;;;;;;52.25;31.52;;;;;;;6.01;66.80;99668.51;251736;1135;115185;-78
2020/12/16 15:10:27;;;;;;;59.33;30.20;;;;;;;5.97;66.67;99666.89;251539;1135;115188;-79
2020/12/16 15:15:29;;;;;;;61.53;31.43;;;;;;;5.96;66.77;99673.09;251628;1134;116802;-79
2020/12/16 15:20:32;;;;;;;61.93;32.47;;;;;;;5.90;66.33;99671.48;251649;1134;115543;-79
2020/12/16 15:25:34;;;;;;;60.50;33.57;;;;;;;5.88;67.21;99670.69;251652;1133;115039;-79
2020/12/16 15:30:36;;;;;;;56.68;33.98;;;;;;;5.84;66.66;99683.13;251832;1133;115025;-79
2020/12/16 15:35:39;;;;;;;67.00;36.50;;;;;;;5.82;66.40;99677.02;251621;1135;115702;-79
2020/12/16 15:40:41;;;;;;;69.57;36.47;;;;;;;5.87;67.51;99669.80;251511;1134;115129;-79
2020/12/16 15:45:43;;;;;;;71.53;38.10;;;;;;;5.91;67.12;99670.59;251786;1135;115005;-76
2020/12/16 15:50:46;;;;;;;67.80;37.40;;;;;;;5.92;66.92;99665.27;251623;1134;115342;-78
2020/12/16 15:55:48;;;;;;;65.67;36.50;;;;;;;5.91;66.32;99676.73;251365;1135;115260;-74
2020/12/16 16:00:50;;;;;;;65.63;34.07;;;;;;;5.90;66.93;99685.55;251312;1135;115238;-80
2020/12/16 16:05:53;;;;;;;61.53;35.67;;;;;;;5.89;66.71;99694.39;251650;1134;116780;-79
2020/12/16 16:10:55;;;;;;;64.55;36.20;;;;;;;5.88;67.41;99692.67;251244;1134;115050;-78
2020/12/16 16:15:57;;;;;;;66.17;36.37;;;;;;;5.87;66.98;99697.98;251039;1133;114880;-78
2020/12/16 16:21:00;;;;;;;60.95;36.33;;;;;;;5.84;67.33;99700.72;251719;1133;114837;-79
2020/12/16 16:26:02;;;;;;;68.37;37.27;;;;;;;5.80;66.18;99699.96;251661;1134;115188;-77
2020/12/16 16:31:04;;;;;;;77.33;41.00;;;;;;;5.81;67.01;99704.35;251484;1134;115345;-79
2020/12/16 16:36:08;;;;;;;73.00;39.07;;;;;;;5.85;66.40;99705.98;250931;1135;115346;-79
2020/12/16 16:41:10;;;;;;;71.90;38.83;;;;;;;5.89;67.29;99710.23;251510;1134;115050;-76
2020/12/16 16:46:13;;;;;;;71.10;39.83;;;;;;;5.92;67.13;99718.11;251802;1133;115284;-76
2020/12/16 16:51:17;;;;;;;75.70;42.30;;;;;;;5.95;66.65;99721.57;251729;1134;114844;-75
2020/12/16 16:56:19;;;;;;;71.10;37.77;;;;;;;5.95;66.59;99721.57;251690;1134;114923;-75
2020/12/16 17:01:27;;;;;;;74.57;39.23;;;;;;;5.92;67.04;99726.03;252159;1135;114886;-76
2020/12/16 17:06:29;;;;;;;68.83;39.03;;;;;;;5.92;66.83;99728.67;251576;1134;115478;-75
2020/12/16 17:11:45;;;;;;;73.47;40.88;;;;;;;5.94;67.40;99731.25;251611;1133;115593;-76
2020/12/16 17:16:47;;;;;;;71.40;38.97;;;;;;;5.95;66.97;99733.00;251786;1134;116547;-76
2020/12/16 17:21:58;;;;;;;69.27;38.80;;;;;;;5.92;67.25;99723.39;251818;1134;114854;-76
2020/12/16 17:27:04;;;;;;;74.72;38.67;;;;;;;5.91;67.25;99732.20;250487;1134;114900;-74
2020/12/16 17:32:10;;;;;;;74.30;41.17;;;;;;;5.92;67.59;99736.59;251549;1135;115187;-79
2020/12/16 17:37:12;;;;;;;66.87;38.60;;;;;;;6.00;66.61;99740.77;251671;1134;116696;-79
2020/12/16 17:42:15;;;;;;;68.43;40.27;;;;;;;6.08;67.41;99754.58;251531;1133;115094;-79
2020/12/16 17:47:17;;;;;;;74.33;39.47;;;;;;;6.13;67.64;99747.39;251590;1134;115161;-78
2020/12/16 17:52:20;;;;;;;68.90;38.77;;;;;;;6.15;67.76;99757.00;251579;1135;115147;-79
2020/12/16 17:57:23;;;;;;;73.57;40.53;;;;;;;6.15;67.58;99772.00;251644;1134;115235;-79
2020/12/16 18:02:25;;;;;;;72.65;41.58;;;;;;;6.12;67.61;99772.95;251651;1135;114576;-79
2020/12/16 18:07:28;;;;;;;86.53;47.93;;;;;;;6.09;67.50;99769.55;251680;1134;114797;-77
2020/12/16 18:12:30;;;;;;;89.90;49.57;;;;;;;6.05;67.36;99770.56;251168;1133;115121;-77
2020/12/16 18:17:33;;;;;;;93.73;50.90;;;;;;;6.01;66.94;99776.83;251883;1135;114967;-77
2020/12/16 18:22:36;;;;;;;94.40;51.00;;;;;;;5.95;66.75;99782.33;251653;1134;114939;-77
2020/12/16 18:27:39;;;;;;;92.97;52.08;;;;;;;5.90;67.32;99782.42;251890;1134;115183;-77
2020/12/16 18:32:45;;;;;;;104.07;55.52;;;;;;;5.85;67.36;99781.72;251699;1135;114852;-77
2020/12/16 18:37:49;;;;;;;119.82;60.08;;;;;;;5.80;67.11;99784.48;251423;1134;115237;-79
2020/12/16 18:42:52;;;;;;;110.97;60.13;;;;;;;5.81;67.00;99787.98;251520;1133;115446;-77
2020/12/16 18:47:55;;;;;;;122.40;65.67;;;;;;;5.87;67.06;99786.02;249178;1134;115845;-80
2020/12/16 18:53:01;;;;;;;125.05;66.55;;;;;;;5.91;67.14;99789.45;251730;1133;115975;-79
2020/12/16 18:58:04;;;;;;;135.20;66.63;;;;;;;5.92;68.00;99785.89;249414;1134;115978;-77
2020/12/16 19:03:14;;;;;;;118.23;63.10;;;;;;;5.91;68.04;99790.31;251462;1133;115332;-77
2020/12/16 19:08:18;;;;;;;118.83;63.67;;;;;;;5.89;67.38;99789.48;251593;1134;115150;-78
2020/12/16 19:13:20;;;;;;;122.57;64.27;;;;;;;5.87;66.80;99793.94;251585;1134;115345;-76
2020/12/16 19:18:23;;;;;;;103.87;57.93;;;;;;;5.84;66.76;99798.45;251419;1134;115858;-75
2020/12/16 19:23:25;;;;;;;101.73;57.40;;;;;;;5.80;67.77;99808.25;251582;1135;116278;-76
2020/12/16 19:28:28;;;;;;;104.67;55.53;;;;;;;5.81;67.95;99810.00;251116;1134;115606;-78
2020/12/16 19:33:30;;;;;;;92.60;50.10;;;;;;;5.86;67.84;99813.35;251699;1134;115554;-77
2020/12/16 19:38:32;;;;;;;102.23;56.90;;;;;;;5.93;67.83;99808.78;251682;1135;115264;-78
2020/12/16 19:43:35;;;;;;;101.90;57.70;;;;;;;6.00;68.06;99810.31;251694;1135;115329;-74
2020/12/16 19:48:37;;;;;;;101.27;55.83;;;;;;;6.03;67.76;99815.51;251969;1134;115018;-73
2020/12/16 19:53:40;;;;;;;98.53;54.70;;;;;;;6.06;67.60;99817.20;251873;1133;115253;-76
2020/12/16 19:58:42;;;;;;;102.27;54.10;;;;;;;6.07;67.60;99824.20;251506;1133;115147;-77
2020/12/16 20:03:45;;;;;;;96.23;55.97;;;;;;;6.07;67.36;99827.70;251824;1135;114797;-74
2020/12/16 20:08:48;;;;;;;95.00;54.25;;;;;;;6.08;67.82;99828.56;251654;1134;115161;-75
2020/12/16 20:13:50;;;;;;;97.43;55.27;;;;;;;6.05;67.74;99839.26;250664;1134;115410;-82
2020/12/16 20:18:52;;;;;;;90.53;53.83;;;;;;;6.00;68.02;99834.09;248498;1134;115710;-80
2020/12/16 20:23:55;;;;;;;88.07;53.33;;;;;;;5.97;67.40;99825.40;251146;1134;115862;-80
2020/12/16 20:28:57;;;;;;;121.60;61.10;;;;;;;5.95;67.75;99822.82;251539;1134;115026;-75
2020/12/16 20:33:59;;;;;;;119.67;63.47;;;;;;;6.02;67.85;99823.50;251751;1134;115736;-78
2020/12/16 20:39:06;;;;;;;120.23;64.73;;;;;;;6.06;67.27;99823.34;251802;1133;115305;-81
2020/12/16 20:44:09;;;;;;;131.60;69.85;;;;;;;6.06;67.84;99830.41;251439;1134;115527;-81
2020/12/16 20:49:12;;;;;;;147.50;73.93;;;;;;;6.04;67.74;99840.15;251774;1133;116572;-82
2020/12/16 20:54:14;;;;;;;137.90;73.20;;;;;;;6.00;68.25;99843.80;251639;1134;115250;-81
2020/12/16 20:59:17;;;;;;;143.97;73.57;;;;;;;5.93;67.23;99846.63;251597;1135;115152;-82
2020/12/16 21:04:19;;;;;;;145.93;73.83;;;;;;;5.89;67.77;99844.95;251716;1135;114832;-82
2020/12/16 21:09:22;;;;;;;94.43;49.97;;;;;;;5.85;67.35;99845.97;251586;1134;117005;-81
2020/12/16 21:14:24;;;;;;;109.67;57.87;;;;;;;5.84;67.34;99849.53;251538;1135;114869;-80
2020/12/16 21:19:26;;;;;;;99.03;52.73;;;;;;;5.81;67.15;99843.44;251734;1134;115673;-80
2020/12/16 21:24:29;;;;;;;104.10;51.92;;;;;;;5.82;67.23;99837.27;251661;1134;114917;-80
2020/12/16 21:29:32;;;;;;;93.33;48.17;;;;;;;5.86;67.73;99845.05;251795;1134;115368;-80
2020/12/16 21:34:35;;;;;;;83.33;46.17;;;;;;;5.90;68.09;99849.32;251497;1135;116004;-81
2020/12/16 21:39:37;;;;;;;89.30;48.37;;;;;;;5.92;67.52;99844.91;251529;1133;114981;-80
2020/12/16 21:44:39;;;;;;;86.87;47.13;;;;;;;5.95;67.13;99841.31;251264;1135;114835;-81
2020/12/16 21:49:42;;;;;;;90.77;47.27;;;;;;;5.95;66.94;99851.88;251664;1133;115473;-80
2020/12/16 21:54:44;;;;;;;108.60;54.57;;;;;;;5.93;67.97;99857.19;251713;1134;115803;-80
2020/12/16 21:59:47;;;;;;;137.30;75.13;;;;;;;5.90;68.29;99857.25;251702;1134;115246;-79
2020/12/16 22:04:49;;;;;;;161.30;83.07;;;;;;;5.88;67.66;99850.30;251693;1134;115105;-79
2020/12/16 22:09:51;;;;;;;171.80;90.55;;;;;;;5.82;68.22;99853.98;251467;1134;115894;-79
2020/12/16 22:14:55;;;;;;;169.20;89.70;;;;;;;5.80;68.43;99857.56;251680;1135;115595;-79
2020/12/16 22:19:57;;;;;;;166.30;87.87;;;;;;;5.78;67.38;99851.48;251718;1135;115249;-80
2020/12/16 22:24:59;;;;;;;159.70;81.33;;;;;;;5.79;67.48;99847.92;251421;1135;115193;-79
2020/12/16 22:30:04;;;;;;;171.13;89.70;;;;;;;5.84;67.89;99857.45;251844;1135;114938;-79
2020/12/16 22:35:07;;;;;;;166.12;90.22;;;;;;;5.87;68.43;99859.98;251378;1133;115197;-80
2020/12/16 22:40:09;;;;;;;177.15;90.35;;;;;;;5.87;68.16;99867.90;251294;1133;115064;-79
2020/12/16 22:45:12;;;;;;;170.90;90.53;;;;;;;5.85;68.57;99863.59;251405;1134;115341;-80
2020/12/16 22:50:14;;;;;;;167.37;90.50;;;;;;;5.79;67.58;99869.91;251483;1133;115226;-80
2020/12/16 22:55:16;;;;;;;168.53;91.00;;;;;;;5.77;67.95;99876.14;251588;1133;115175;-79
2020/12/16 23:00:18;;;;;;;171.63;93.90;;;;;;;5.72;67.35;99870.14;251405;1135;115498;-80